sensor_id;sensor_type;location;lat;lon;timestamp;P1;durP1;ratioP1;P2;durP2;ratioP2
57409;SDS011;46044;44.738;20.394;2022-07-23T00:01:22;9.57;;;4.82;;
57409;SDS011;46044;44.738;20.394;2022-07-23T00:03:48;12.30;;;4.22;;
57409;SDS011;46044;44.738;20.394;2022-07-23T00:06:15;14.82;;;4.38;;
57409;SDS011;46044;44.738;20.394;2022-07-23T00:08:41;15.65;;;4.30;;
57409;SDS011;46044;44.738;20.394;2022-07-23T00:11:07;11.70;;;4.80;;
57409;SDS011;46044;44.738;20.394;2022-07-23T00:13:32;10.73;;;4.30;;
57409;SDS011;46044;44.738;20.394;2022-07-23T00:15:58;14.90;;;4.45;;
57409;SDS011;46044;44.738;20.394;2022-07-23T00:18:24;9.20;;;3.88;;
57409;SDS011;46044;44.738;20.394;2022-07-23T00:20:50;7.90;;;4.60;;
57409;SDS011;46044;44.738;20.394;2022-07-23T00:23:16;7.97;;;3.90;;
57409;SDS011;46044;44.738;20.394;2022-07-23T00:25:42;14.45;;;4.80;;
57409;SDS011;46044;44.738;20.394;2022-07-23T00:28:10;8.50;;;3.78;;
57409;SDS011;46044;44.738;20.394;2022-07-23T00:30:36;9.27;;;4.47;;
57409;SDS011;46044;44.738;20.394;2022-07-23T00:33:03;9.00;;;4.63;;
57409;SDS011;46044;44.738;20.394;2022-07-23T00:35:33;10.88;;;3.92;;
57409;SDS011;46044;44.738;20.394;2022-07-23T00:38:01;10.18;;;3.90;;
57409;SDS011;46044;44.738;20.394;2022-07-23T00:40:28;8.27;;;3.80;;
57409;SDS011;46044;44.738;20.394;2022-07-23T00:42:55;7.80;;;3.47;;
57409;SDS011;46044;44.738;20.394;2022-07-23T00:45:20;9.77;;;4.00;;
57409;SDS011;46044;44.738;20.394;2022-07-23T00:47:46;8.13;;;4.00;;
57409;SDS011;46044;44.738;20.394;2022-07-23T00:50:12;12.02;;;3.92;;
57409;SDS011;46044;44.738;20.394;2022-07-23T00:52:39;9.10;;;4.03;;
57409;SDS011;46044;44.738;20.394;2022-07-23T00:55:05;25.20;;;4.95;;
57409;SDS011;46044;44.738;20.394;2022-07-23T00:57:33;10.60;;;3.90;;
57409;SDS011;46044;44.738;20.394;2022-07-23T00:59:59;9.57;;;4.30;;
57409;SDS011;46044;44.738;20.394;2022-07-23T01:02:25;8.93;;;4.00;;
57409;SDS011;46044;44.738;20.394;2022-07-23T01:04:51;5.38;;;3.40;;
57409;SDS011;46044;44.738;20.394;2022-07-23T01:07:18;7.95;;;3.67;;
57409;SDS011;46044;44.738;20.394;2022-07-23T01:09:44;5.70;;;3.35;;
57409;SDS011;46044;44.738;20.394;2022-07-23T01:12:10;12.15;;;4.15;;
57409;SDS011;46044;44.738;20.394;2022-07-23T01:14:36;6.55;;;3.70;;
57409;SDS011;46044;44.738;20.394;2022-07-23T01:17:02;9.00;;;3.72;;
57409;SDS011;46044;44.738;20.394;2022-07-23T01:19:28;8.65;;;3.80;;
57409;SDS011;46044;44.738;20.394;2022-07-23T01:21:53;11.02;;;3.97;;
57409;SDS011;46044;44.738;20.394;2022-07-23T01:24:21;7.25;;;3.40;;
57409;SDS011;46044;44.738;20.394;2022-07-23T01:26:48;8.27;;;3.65;;
57409;SDS011;46044;44.738;20.394;2022-07-23T01:29:15;6.60;;;3.13;;
57409;SDS011;46044;44.738;20.394;2022-07-23T01:31:41;9.88;;;3.95;;
57409;SDS011;46044;44.738;20.394;2022-07-23T01:34:07;7.65;;;3.75;;
57409;SDS011;46044;44.738;20.394;2022-07-23T01:36:33;10.20;;;3.80;;
57409;SDS011;46044;44.738;20.394;2022-07-23T01:39:00;10.05;;;3.45;;
57409;SDS011;46044;44.738;20.394;2022-07-23T01:41:26;8.73;;;3.75;;
57409;SDS011;46044;44.738;20.394;2022-07-23T01:43:52;10.57;;;4.40;;
57409;SDS011;46044;44.738;20.394;2022-07-23T01:46:17;6.95;;;3.80;;
57409;SDS011;46044;44.738;20.394;2022-07-23T01:48:43;10.20;;;4.38;;
57409;SDS011;46044;44.738;20.394;2022-07-23T01:51:09;4.38;;;3.10;;
57409;SDS011;46044;44.738;20.394;2022-07-23T01:53:35;7.60;;;3.42;;
57409;SDS011;46044;44.738;20.394;2022-07-23T01:56:00;9.75;;;3.60;;
57409;SDS011;46044;44.738;20.394;2022-07-23T01:58:27;7.00;;;3.72;;
57409;SDS011;46044;44.738;20.394;2022-07-23T02:00:53;6.60;;;3.58;;
57409;SDS011;46044;44.738;20.394;2022-07-23T02:03:19;8.75;;;3.92;;
57409;SDS011;46044;44.738;20.394;2022-07-23T02:05:45;14.60;;;4.07;;
57409;SDS011;46044;44.738;20.394;2022-07-23T02:08:10;7.85;;;3.60;;
57409;SDS011;46044;44.738;20.394;2022-07-23T02:10:36;10.30;;;3.63;;
57409;SDS011;46044;44.738;20.394;2022-07-23T02:13:02;11.10;;;3.47;;
57409;SDS011;46044;44.738;20.394;2022-07-23T02:15:28;8.35;;;3.67;;
57409;SDS011;46044;44.738;20.394;2022-07-23T02:17:54;6.50;;;3.75;;
57409;SDS011;46044;44.738;20.394;2022-07-23T02:20:20;9.70;;;3.85;;
57409;SDS011;46044;44.738;20.394;2022-07-23T02:22:47;11.63;;;4.20;;
57409;SDS011;46044;44.738;20.394;2022-07-23T02:25:12;11.57;;;4.47;;
57409;SDS011;46044;44.738;20.394;2022-07-23T02:27:38;8.40;;;3.90;;
57409;SDS011;46044;44.738;20.394;2022-07-23T02:30:04;8.90;;;4.05;;
57409;SDS011;46044;44.738;20.394;2022-07-23T02:32:30;13.88;;;5.32;;
57409;SDS011;46044;44.738;20.394;2022-07-23T02:34:56;10.20;;;5.20;;
57409;SDS011;46044;44.738;20.394;2022-07-23T02:37:22;12.48;;;6.22;;
57409;SDS011;46044;44.738;20.394;2022-07-23T02:39:47;13.48;;;6.72;;
57409;SDS011;46044;44.738;20.394;2022-07-23T02:42:13;13.90;;;6.50;;
57409;SDS011;46044;44.738;20.394;2022-07-23T02:44:40;21.33;;;9.10;;
57409;SDS011;46044;44.738;20.394;2022-07-23T02:47:06;15.23;;;9.13;;
57409;SDS011;46044;44.738;20.394;2022-07-23T02:49:31;22.38;;;9.38;;
57409;SDS011;46044;44.738;20.394;2022-07-23T02:51:57;12.13;;;7.10;;
57409;SDS011;46044;44.738;20.394;2022-07-23T02:54:23;12.23;;;6.53;;
57409;SDS011;46044;44.738;20.394;2022-07-23T02:56:48;12.02;;;6.28;;
57409;SDS011;46044;44.738;20.394;2022-07-23T02:59:16;16.27;;;7.50;;
57409;SDS011;46044;44.738;20.394;2022-07-23T03:01:43;11.30;;;6.43;;
57409;SDS011;46044;44.738;20.394;2022-07-23T03:04:09;15.10;;;6.15;;
57409;SDS011;46044;44.738;20.394;2022-07-23T03:06:35;11.80;;;5.38;;
57409;SDS011;46044;44.738;20.394;2022-07-23T03:09:01;13.80;;;4.70;;
57409;SDS011;46044;44.738;20.394;2022-07-23T03:11:27;10.25;;;5.03;;
57409;SDS011;46044;44.738;20.394;2022-07-23T03:13:53;12.85;;;4.53;;
57409;SDS011;46044;44.738;20.394;2022-07-23T03:16:18;10.25;;;4.30;;
57409;SDS011;46044;44.738;20.394;2022-07-23T03:18:44;10.25;;;3.83;;
57409;SDS011;46044;44.738;20.394;2022-07-23T03:21:10;11.82;;;4.25;;
57409;SDS011;46044;44.738;20.394;2022-07-23T03:23:35;11.73;;;4.00;;
57409;SDS011;46044;44.738;20.394;2022-07-23T03:26:01;9.50;;;4.35;;
57409;SDS011;46044;44.738;20.394;2022-07-23T03:28:27;8.90;;;3.90;;
57409;SDS011;46044;44.738;20.394;2022-07-23T03:30:53;13.07;;;3.85;;
57409;SDS011;46044;44.738;20.394;2022-07-23T03:33:19;9.35;;;3.92;;
57409;SDS011;46044;44.738;20.394;2022-07-23T03:35:46;15.38;;;4.43;;
57409;SDS011;46044;44.738;20.394;2022-07-23T03:38:12;9.75;;;3.92;;
57409;SDS011;46044;44.738;20.394;2022-07-23T03:40:38;8.82;;;4.30;;
57409;SDS011;46044;44.738;20.394;2022-07-23T03:43:04;7.57;;;3.47;;
57409;SDS011;46044;44.738;20.394;2022-07-23T03:45:30;9.32;;;4.38;;
57409;SDS011;46044;44.738;20.394;2022-07-23T03:47:56;9.30;;;4.05;;
57409;SDS011;46044;44.738;20.394;2022-07-23T03:50:22;11.20;;;4.07;;
57409;SDS011;46044;44.738;20.394;2022-07-23T03:52:48;9.45;;;3.53;;
57409;SDS011;46044;44.738;20.394;2022-07-23T03:55:14;10.00;;;3.60;;
57409;SDS011;46044;44.738;20.394;2022-07-23T03:57:40;11.23;;;3.65;;
57409;SDS011;46044;44.738;20.394;2022-07-23T04:00:06;11.93;;;3.80;;
57409;SDS011;46044;44.738;20.394;2022-07-23T04:02:34;7.82;;;3.45;;
57409;SDS011;46044;44.738;20.394;2022-07-23T04:05:01;8.90;;;3.40;;
57409;SDS011;46044;44.738;20.394;2022-07-23T04:07:26;9.80;;;3.67;;
57409;SDS011;46044;44.738;20.394;2022-07-23T04:09:52;8.80;;;3.45;;
57409;SDS011;46044;44.738;20.394;2022-07-23T04:12:18;11.10;;;3.55;;
57409;SDS011;46044;44.738;20.394;2022-07-23T04:14:44;11.82;;;4.65;;
57409;SDS011;46044;44.738;20.394;2022-07-23T04:17:10;17.58;;;4.18;;
57409;SDS011;46044;44.738;20.394;2022-07-23T04:19:36;12.32;;;3.72;;
57409;SDS011;46044;44.738;20.394;2022-07-23T04:22:08;15.77;;;4.10;;
57409;SDS011;46044;44.738;20.394;2022-07-23T04:24:33;18.38;;;3.88;;
57409;SDS011;46044;44.738;20.394;2022-07-23T04:26:59;18.38;;;4.10;;
57409;SDS011;46044;44.738;20.394;2022-07-23T04:29:25;15.15;;;3.55;;
57409;SDS011;46044;44.738;20.394;2022-07-23T04:31:51;8.98;;;3.83;;
57409;SDS011;46044;44.738;20.394;2022-07-23T04:34:17;11.18;;;3.63;;
57409;SDS011;46044;44.738;20.394;2022-07-23T04:36:43;13.07;;;3.75;;
57409;SDS011;46044;44.738;20.394;2022-07-23T04:39:08;8.20;;;4.22;;
57409;SDS011;46044;44.738;20.394;2022-07-23T04:41:34;10.35;;;4.20;;
57409;SDS011;46044;44.738;20.394;2022-07-23T04:44:00;10.07;;;3.50;;
57409;SDS011;46044;44.738;20.394;2022-07-23T04:46:26;10.95;;;3.60;;
57409;SDS011;46044;44.738;20.394;2022-07-23T04:48:52;8.07;;;3.13;;
57409;SDS011;46044;44.738;20.394;2022-07-23T04:51:18;7.45;;;3.08;;
57409;SDS011;46044;44.738;20.394;2022-07-23T04:53:44;11.55;;;3.88;;
57409;SDS011;46044;44.738;20.394;2022-07-23T04:56:10;6.00;;;3.10;;
57409;SDS011;46044;44.738;20.394;2022-07-23T04:58:35;10.43;;;3.13;;
57409;SDS011;46044;44.738;20.394;2022-07-23T05:01:01;6.32;;;3.35;;
57409;SDS011;46044;44.738;20.394;2022-07-23T05:03:27;11.32;;;3.38;;
57409;SDS011;46044;44.738;20.394;2022-07-23T05:05:53;12.10;;;3.50;;
57409;SDS011;46044;44.738;20.394;2022-07-23T05:08:19;9.07;;;3.47;;
57409;SDS011;46044;44.738;20.394;2022-07-23T05:10:44;7.72;;;3.70;;
57409;SDS011;46044;44.738;20.394;2022-07-23T05:13:10;14.57;;;4.05;;
57409;SDS011;46044;44.738;20.394;2022-07-23T05:15:36;6.53;;;3.30;;
57409;SDS011;46044;44.738;20.394;2022-07-23T05:18:02;7.75;;;3.75;;
57409;SDS011;46044;44.738;20.394;2022-07-23T05:20:28;14.02;;;4.30;;
57409;SDS011;46044;44.738;20.394;2022-07-23T05:22:53;15.75;;;4.07;;
57409;SDS011;46044;44.738;20.394;2022-07-23T05:25:19;18.13;;;3.90;;
57409;SDS011;46044;44.738;20.394;2022-07-23T05:27:45;16.77;;;4.70;;
57409;SDS011;46044;44.738;20.394;2022-07-23T05:30:13;18.00;;;4.57;;
57409;SDS011;46044;44.738;20.394;2022-07-23T05:32:39;17.42;;;5.35;;
57409;SDS011;46044;44.738;20.394;2022-07-23T05:35:05;16.60;;;5.03;;
57409;SDS011;46044;44.738;20.394;2022-07-23T05:37:31;18.55;;;4.60;;
57409;SDS011;46044;44.738;20.394;2022-07-23T05:40:04;21.52;;;4.65;;
57409;SDS011;46044;44.738;20.394;2022-07-23T05:42:32;14.00;;;4.40;;
57409;SDS011;46044;44.738;20.394;2022-07-23T05:44:59;21.33;;;4.82;;
57409;SDS011;46044;44.738;20.394;2022-07-23T05:47:24;19.20;;;6.38;;
57409;SDS011;46044;44.738;20.394;2022-07-23T05:49:50;28.70;;;5.68;;
57409;SDS011;46044;44.738;20.394;2022-07-23T05:52:16;23.75;;;5.15;;
57409;SDS011;46044;44.738;20.394;2022-07-23T05:54:42;22.90;;;6.00;;
57409;SDS011;46044;44.738;20.394;2022-07-23T05:57:07;26.40;;;5.88;;
57409;SDS011;46044;44.738;20.394;2022-07-23T05:59:33;26.75;;;5.60;;
57409;SDS011;46044;44.738;20.394;2022-07-23T06:01:59;23.85;;;5.32;;
57409;SDS011;46044;44.738;20.394;2022-07-23T06:04:25;23.65;;;5.95;;
57409;SDS011;46044;44.738;20.394;2022-07-23T06:06:50;33.20;;;5.32;;
57409;SDS011;46044;44.738;20.394;2022-07-23T06:09:16;36.35;;;6.35;;
57409;SDS011;46044;44.738;20.394;2022-07-23T06:11:43;60.38;;;7.35;;
57409;SDS011;46044;44.738;20.394;2022-07-23T06:14:09;65.78;;;8.30;;
57409;SDS011;46044;44.738;20.394;2022-07-23T06:16:34;65.68;;;8.02;;
57409;SDS011;46044;44.738;20.394;2022-07-23T06:19:00;151.85;;;33.95;;
57409;SDS011;46044;44.738;20.394;2022-07-23T06:21:26;130.82;;;11.20;;
57409;SDS011;46044;44.738;20.394;2022-07-23T06:23:51;124.32;;;10.15;;
57409;SDS011;46044;44.738;20.394;2022-07-23T06:26:17;112.68;;;10.02;;
57409;SDS011;46044;44.738;20.394;2022-07-23T06:28:43;101.22;;;9.65;;
57409;SDS011;46044;44.738;20.394;2022-07-23T06:31:08;74.28;;;9.32;;
57409;SDS011;46044;44.738;20.394;2022-07-23T06:33:34;101.45;;;10.05;;
57409;SDS011;46044;44.738;20.394;2022-07-23T06:36:00;89.10;;;9.05;;
57409;SDS011;46044;44.738;20.394;2022-07-23T06:38:25;67.25;;;10.05;;
57409;SDS011;46044;44.738;20.394;2022-07-23T06:40:51;57.85;;;7.05;;
57409;SDS011;46044;44.738;20.394;2022-07-23T06:43:17;61.50;;;7.72;;
57409;SDS011;46044;44.738;20.394;2022-07-23T06:45:43;58.10;;;7.75;;
57409;SDS011;46044;44.738;20.394;2022-07-23T06:48:08;57.90;;;8.32;;
57409;SDS011;46044;44.738;20.394;2022-07-23T06:50:34;54.83;;;7.72;;
57409;SDS011;46044;44.738;20.394;2022-07-23T06:53:00;51.08;;;8.27;;
57409;SDS011;46044;44.738;20.394;2022-07-23T06:55:26;42.72;;;6.53;;
57409;SDS011;46044;44.738;20.394;2022-07-23T06:57:51;37.70;;;5.88;;
57409;SDS011;46044;44.738;20.394;2022-07-23T07:00:17;31.02;;;6.22;;
57409;SDS011;46044;44.738;20.394;2022-07-23T07:02:43;25.58;;;6.03;;
57409;SDS011;46044;44.738;20.394;2022-07-23T07:05:09;17.98;;;5.40;;
57409;SDS011;46044;44.738;20.394;2022-07-23T07:07:34;24.67;;;5.90;;
57409;SDS011;46044;44.738;20.394;2022-07-23T07:10:01;35.85;;;5.22;;
57409;SDS011;46044;44.738;20.394;2022-07-23T07:12:28;37.88;;;5.68;;
57409;SDS011;46044;44.738;20.394;2022-07-23T07:14:53;31.83;;;5.35;;
57409;SDS011;46044;44.738;20.394;2022-07-23T07:17:19;20.65;;;5.95;;
57409;SDS011;46044;44.738;20.394;2022-07-23T07:19:45;21.63;;;5.78;;
57409;SDS011;46044;44.738;20.394;2022-07-23T07:22:11;32.13;;;5.25;;
57409;SDS011;46044;44.738;20.394;2022-07-23T07:24:36;26.45;;;6.57;;
57409;SDS011;46044;44.738;20.394;2022-07-23T07:27:02;37.40;;;6.07;;
57409;SDS011;46044;44.738;20.394;2022-07-23T07:29:28;37.78;;;5.72;;
57409;SDS011;46044;44.738;20.394;2022-07-23T07:31:54;33.15;;;6.70;;
57409;SDS011;46044;44.738;20.394;2022-07-23T07:34:19;31.48;;;6.40;;
57409;SDS011;46044;44.738;20.394;2022-07-23T07:36:45;39.97;;;6.30;;
57409;SDS011;46044;44.738;20.394;2022-07-23T07:39:11;44.08;;;6.28;;
57409;SDS011;46044;44.738;20.394;2022-07-23T07:41:36;29.40;;;5.72;;
57409;SDS011;46044;44.738;20.394;2022-07-23T07:44:02;25.20;;;5.47;;
57409;SDS011;46044;44.738;20.394;2022-07-23T07:46:28;39.22;;;10.52;;
57409;SDS011;46044;44.738;20.394;2022-07-23T07:48:55;43.10;;;9.93;;
57409;SDS011;46044;44.738;20.394;2022-07-23T07:51:21;38.50;;;10.43;;
57409;SDS011;46044;44.738;20.394;2022-07-23T07:53:47;35.22;;;10.20;;
57409;SDS011;46044;44.738;20.394;2022-07-23T07:56:12;19.15;;;4.90;;
57409;SDS011;46044;44.738;20.394;2022-07-23T07:58:38;17.23;;;4.95;;
57409;SDS011;46044;44.738;20.394;2022-07-23T08:01:04;33.22;;;5.70;;
57409;SDS011;46044;44.738;20.394;2022-07-23T08:03:30;584.72;;;218.07;;
57409;SDS011;46044;44.738;20.394;2022-07-23T08:05:56;178.23;;;64.07;;
57409;SDS011;46044;44.738;20.394;2022-07-23T08:08:21;203.77;;;82.47;;
57409;SDS011;46044;44.738;20.394;2022-07-23T08:10:47;289.65;;;112.53;;
57409;SDS011;46044;44.738;20.394;2022-07-23T08:13:13;212.35;;;88.82;;
57409;SDS011;46044;44.738;20.394;2022-07-23T08:15:40;222.73;;;82.30;;
57409;SDS011;46044;44.738;20.394;2022-07-23T08:18:07;262.95;;;104.85;;
57409;SDS011;46044;44.738;20.394;2022-07-23T08:20:33;344.05;;;140.40;;
57409;SDS011;46044;44.738;20.394;2022-07-23T08:23:00;83.63;;;27.10;;
57409;SDS011;46044;44.738;20.394;2022-07-23T08:25:34;39.92;;;11.25;;
57409;SDS011;46044;44.738;20.394;2022-07-23T08:28:02;272.25;;;109.68;;
57409;SDS011;46044;44.738;20.394;2022-07-23T08:30:30;260.55;;;107.55;;
57409;SDS011;46044;44.738;20.394;2022-07-23T08:33:01;308.95;;;134.10;;
57409;SDS011;46044;44.738;20.394;2022-07-23T08:35:43;273.33;;;120.68;;
57409;SDS011;46044;44.738;20.394;2022-07-23T08:38:14;229.45;;;96.10;;
57409;SDS011;46044;44.738;20.394;2022-07-23T08:40:41;88.60;;;37.25;;
57409;SDS011;46044;44.738;20.394;2022-07-23T08:43:13;89.90;;;37.65;;
57409;SDS011;46044;44.738;20.394;2022-07-23T08:45:44;156.88;;;65.07;;
57409;SDS011;46044;44.738;20.394;2022-07-23T08:48:13;108.60;;;43.95;;
57409;SDS011;46044;44.738;20.394;2022-07-23T08:50:47;68.70;;;27.65;;
57409;SDS011;46044;44.738;20.394;2022-07-23T08:53:15;86.60;;;37.42;;
57409;SDS011;46044;44.738;20.394;2022-07-23T08:55:45;179.77;;;79.70;;
57409;SDS011;46044;44.738;20.394;2022-07-23T08:58:12;83.13;;;39.17;;
57409;SDS011;46044;44.738;20.394;2022-07-23T09:00:38;123.63;;;53.35;;
57409;SDS011;46044;44.738;20.394;2022-07-23T09:03:04;22.80;;;5.28;;
57409;SDS011;46044;44.738;20.394;2022-07-23T09:05:29;17.35;;;5.05;;
57409;SDS011;46044;44.738;20.394;2022-07-23T09:08:09;20.23;;;5.40;;
57409;SDS011;46044;44.738;20.394;2022-07-23T09:15:52;18.02;;;4.40;;
57409;SDS011;46044;44.738;20.394;2022-07-23T09:18:19;12.60;;;4.00;;
57409;SDS011;46044;44.738;20.394;2022-07-23T09:21:04;19.27;;;4.40;;
57409;SDS011;46044;44.738;20.394;2022-07-23T09:23:37;26.52;;;5.03;;
57409;SDS011;46044;44.738;20.394;2022-07-23T09:26:16;25.10;;;5.25;;
57409;SDS011;46044;44.738;20.394;2022-07-23T09:28:50;18.55;;;5.10;;
57409;SDS011;46044;44.738;20.394;2022-07-23T09:31:19;21.52;;;4.80;;
57409;SDS011;46044;44.738;20.394;2022-07-23T09:33:45;23.83;;;4.60;;
57409;SDS011;46044;44.738;20.394;2022-07-23T09:36:11;18.90;;;4.60;;
57409;SDS011;46044;44.738;20.394;2022-07-23T09:38:47;19.42;;;5.13;;
57409;SDS011;46044;44.738;20.394;2022-07-23T09:41:14;9.23;;;4.18;;
57409;SDS011;46044;44.738;20.394;2022-07-23T09:43:43;20.20;;;4.97;;
57409;SDS011;46044;44.738;20.394;2022-07-23T09:48:49;16.77;;;4.85;;
57409;SDS011;46044;44.738;20.394;2022-07-23T09:51:16;16.00;;;3.97;;
57409;SDS011;46044;44.738;20.394;2022-07-23T09:54:05;15.85;;;4.80;;
57409;SDS011;46044;44.738;20.394;2022-07-23T09:56:45;19.40;;;4.50;;
57409;SDS011;46044;44.738;20.394;2022-07-23T09:59:12;9.43;;;4.18;;
57409;SDS011;46044;44.738;20.394;2022-07-23T10:01:42;16.52;;;4.25;;
57409;SDS011;46044;44.738;20.394;2022-07-23T10:04:10;12.98;;;4.70;;
57409;SDS011;46044;44.738;20.394;2022-07-23T10:06:37;14.00;;;4.22;;
57409;SDS011;46044;44.738;20.394;2022-07-23T10:09:04;21.73;;;4.65;;
57409;SDS011;46044;44.738;20.394;2022-07-23T10:11:30;19.65;;;4.35;;
57409;SDS011;46044;44.738;20.394;2022-07-23T10:13:58;14.90;;;4.40;;
57409;SDS011;46044;44.738;20.394;2022-07-23T10:16:25;12.25;;;4.60;;
57409;SDS011;46044;44.738;20.394;2022-07-23T10:18:51;9.45;;;4.25;;
57409;SDS011;46044;44.738;20.394;2022-07-23T10:21:27;11.77;;;4.47;;
57409;SDS011;46044;44.738;20.394;2022-07-23T10:27:23;12.23;;;4.35;;
57409;SDS011;46044;44.738;20.394;2022-07-23T10:30:00;18.80;;;4.55;;
57409;SDS011;46044;44.738;20.394;2022-07-23T10:35:19;13.90;;;4.63;;
57409;SDS011;46044;44.738;20.394;2022-07-23T10:38:07;11.52;;;4.60;;
57409;SDS011;46044;44.738;20.394;2022-07-23T10:40:43;16.10;;;4.55;;
57409;SDS011;46044;44.738;20.394;2022-07-23T10:43:25;15.45;;;5.22;;
57409;SDS011;46044;44.738;20.394;2022-07-23T10:45:51;14.02;;;5.18;;
57409;SDS011;46044;44.738;20.394;2022-07-23T10:48:18;17.83;;;5.38;;
57409;SDS011;46044;44.738;20.394;2022-07-23T10:56:16;17.85;;;5.88;;
57409;SDS011;46044;44.738;20.394;2022-07-23T10:59:05;16.67;;;6.57;;
57409;SDS011;46044;44.738;20.394;2022-07-23T11:01:37;11.20;;;6.07;;
57409;SDS011;46044;44.738;20.394;2022-07-23T11:04:04;11.52;;;5.53;;
57409;SDS011;46044;44.738;20.394;2022-07-23T11:25:10;17.03;;;6.17;;
57409;SDS011;46044;44.738;20.394;2022-07-23T11:30:04;11.70;;;4.85;;
57409;SDS011;46044;44.738;20.394;2022-07-23T11:32:33;11.27;;;5.53;;
57409;SDS011;46044;44.738;20.394;2022-07-23T11:35:00;16.17;;;5.25;;
57409;SDS011;46044;44.738;20.394;2022-07-23T11:37:28;14.13;;;5.53;;
57409;SDS011;46044;44.738;20.394;2022-07-23T11:42:35;11.88;;;5.22;;
57409;SDS011;46044;44.738;20.394;2022-07-23T11:45:15;21.40;;;5.47;;
57409;SDS011;46044;44.738;20.394;2022-07-23T11:47:41;13.55;;;5.45;;
57409;SDS011;46044;44.738;20.394;2022-07-23T11:50:06;15.45;;;5.93;;
57409;SDS011;46044;44.738;20.394;2022-07-23T11:52:32;19.73;;;5.50;;
57409;SDS011;46044;44.738;20.394;2022-07-23T11:55:00;20.17;;;6.32;;
57409;SDS011;46044;44.738;20.394;2022-07-23T11:57:30;17.60;;;5.25;;
57409;SDS011;46044;44.738;20.394;2022-07-23T12:00:05;15.27;;;5.65;;
57409;SDS011;46044;44.738;20.394;2022-07-23T12:02:54;48.42;;;10.73;;
57409;SDS011;46044;44.738;20.394;2022-07-23T12:07:54;18.10;;;5.22;;
57409;SDS011;46044;44.738;20.394;2022-07-23T12:10:28;14.65;;;6.03;;
57409;SDS011;46044;44.738;20.394;2022-07-23T12:13:11;14.23;;;5.80;;
57409;SDS011;46044;44.738;20.394;2022-07-23T12:15:45;19.00;;;5.60;;
57409;SDS011;46044;44.738;20.394;2022-07-23T12:18:17;20.05;;;5.78;;
57409;SDS011;46044;44.738;20.394;2022-07-23T12:20:46;15.43;;;6.03;;
57409;SDS011;46044;44.738;20.394;2022-07-23T12:23:18;15.25;;;4.88;;
57409;SDS011;46044;44.738;20.394;2022-07-23T12:25:47;14.88;;;5.07;;
57409;SDS011;46044;44.738;20.394;2022-07-23T12:28:29;12.52;;;4.50;;
57409;SDS011;46044;44.738;20.394;2022-07-23T12:30:57;13.55;;;4.80;;
57409;SDS011;46044;44.738;20.394;2022-07-23T12:35:54;11.70;;;4.40;;
57409;SDS011;46044;44.738;20.394;2022-07-23T12:38:21;12.82;;;5.10;;
57409;SDS011;46044;44.738;20.394;2022-07-23T12:43:20;14.60;;;5.43;;
57409;SDS011;46044;44.738;20.394;2022-07-23T12:48:27;11.07;;;5.30;;
57409;SDS011;46044;44.738;20.394;2022-07-23T12:53:29;10.68;;;4.40;;
57409;SDS011;46044;44.738;20.394;2022-07-23T12:55:59;16.20;;;4.53;;
57409;SDS011;46044;44.738;20.394;2022-07-23T12:58:43;17.73;;;5.60;;
57409;SDS011;46044;44.738;20.394;2022-07-23T13:06:44;17.35;;;5.25;;
57409;SDS011;46044;44.738;20.394;2022-07-23T13:09:15;19.27;;;5.63;;
57409;SDS011;46044;44.738;20.394;2022-07-23T13:11:45;14.05;;;4.95;;
57409;SDS011;46044;44.738;20.394;2022-07-23T13:14:13;12.13;;;5.22;;
57409;SDS011;46044;44.738;20.394;2022-07-23T13:16:40;17.63;;;4.43;;
57409;SDS011;46044;44.738;20.394;2022-07-23T13:19:07;11.18;;;4.47;;
57409;SDS011;46044;44.738;20.394;2022-07-23T13:21:33;14.20;;;4.60;;
57409;SDS011;46044;44.738;20.394;2022-07-23T13:23:58;10.60;;;4.88;;
57409;SDS011;46044;44.738;20.394;2022-07-23T13:26:25;13.70;;;5.43;;
57409;SDS011;46044;44.738;20.394;2022-07-23T13:28:51;10.18;;;4.38;;
57409;SDS011;46044;44.738;20.394;2022-07-23T13:31:17;10.10;;;4.72;;
57409;SDS011;46044;44.738;20.394;2022-07-23T13:33:43;14.20;;;5.85;;
57409;SDS011;46044;44.738;20.394;2022-07-23T13:36:09;13.93;;;4.35;;
57409;SDS011;46044;44.738;20.394;2022-07-23T13:38:35;11.43;;;4.68;;
57409;SDS011;46044;44.738;20.394;2022-07-23T13:41:01;11.57;;;4.38;;
57409;SDS011;46044;44.738;20.394;2022-07-23T13:43:28;11.73;;;4.32;;
57409;SDS011;46044;44.738;20.394;2022-07-23T13:45:54;12.95;;;4.80;;
57409;SDS011;46044;44.738;20.394;2022-07-23T13:48:19;13.38;;;5.13;;
57409;SDS011;46044;44.738;20.394;2022-07-23T13:50:46;12.93;;;4.90;;
57409;SDS011;46044;44.738;20.394;2022-07-23T13:53:14;20.90;;;5.35;;
57409;SDS011;46044;44.738;20.394;2022-07-23T13:55:44;11.68;;;4.68;;
57409;SDS011;46044;44.738;20.394;2022-07-23T13:58:12;42.15;;;6.13;;
57409;SDS011;46044;44.738;20.394;2022-07-23T14:00:39;17.00;;;4.95;;
57409;SDS011;46044;44.738;20.394;2022-07-23T14:03:07;17.80;;;5.40;;
57409;SDS011;46044;44.738;20.394;2022-07-23T14:05:33;13.95;;;4.50;;
57409;SDS011;46044;44.738;20.394;2022-07-23T14:07:59;9.45;;;4.35;;
57409;SDS011;46044;44.738;20.394;2022-07-23T14:10:24;11.98;;;4.90;;
57409;SDS011;46044;44.738;20.394;2022-07-23T14:12:51;17.20;;;4.80;;
57409;SDS011;46044;44.738;20.394;2022-07-23T14:15:20;11.52;;;4.10;;
57409;SDS011;46044;44.738;20.394;2022-07-23T14:17:46;13.93;;;4.85;;
57409;SDS011;46044;44.738;20.394;2022-07-23T14:20:12;11.27;;;4.63;;
57409;SDS011;46044;44.738;20.394;2022-07-23T14:22:42;10.73;;;4.57;;
57409;SDS011;46044;44.738;20.394;2022-07-23T14:25:08;10.52;;;4.22;;
57409;SDS011;46044;44.738;20.394;2022-07-23T14:27:35;12.57;;;4.15;;
57409;SDS011;46044;44.738;20.394;2022-07-23T14:30:02;13.55;;;4.25;;
57409;SDS011;46044;44.738;20.394;2022-07-23T14:32:29;9.75;;;5.18;;
57409;SDS011;46044;44.738;20.394;2022-07-23T14:34:56;12.88;;;4.32;;
57409;SDS011;46044;44.738;20.394;2022-07-23T14:37:22;6.93;;;3.72;;
57409;SDS011;46044;44.738;20.394;2022-07-23T14:39:47;11.30;;;4.13;;
57409;SDS011;46044;44.738;20.394;2022-07-23T14:42:14;9.38;;;4.07;;
57409;SDS011;46044;44.738;20.394;2022-07-23T14:44:40;10.00;;;5.22;;
57409;SDS011;46044;44.738;20.394;2022-07-23T14:47:07;12.60;;;4.32;;
57409;SDS011;46044;44.738;20.394;2022-07-23T14:49:33;7.20;;;4.32;;
57409;SDS011;46044;44.738;20.394;2022-07-23T14:51:59;8.40;;;4.00;;
57409;SDS011;46044;44.738;20.394;2022-07-23T14:54:26;13.40;;;4.82;;
57409;SDS011;46044;44.738;20.394;2022-07-23T14:56:56;8.88;;;4.57;;
57409;SDS011;46044;44.738;20.394;2022-07-23T14:59:23;12.25;;;4.90;;
57409;SDS011;46044;44.738;20.394;2022-07-23T15:01:49;10.93;;;5.00;;
57409;SDS011;46044;44.738;20.394;2022-07-23T15:04:14;16.38;;;4.63;;
57409;SDS011;46044;44.738;20.394;2022-07-23T15:06:40;11.88;;;5.18;;
57409;SDS011;46044;44.738;20.394;2022-07-23T15:09:06;10.55;;;4.93;;
57409;SDS011;46044;44.738;20.394;2022-07-23T15:11:32;12.00;;;5.45;;
57409;SDS011;46044;44.738;20.394;2022-07-23T15:14:05;10.48;;;5.13;;
57409;SDS011;46044;44.738;20.394;2022-07-23T15:16:33;7.57;;;4.70;;
57409;SDS011;46044;44.738;20.394;2022-07-23T15:18:59;14.85;;;5.05;;
57409;SDS011;46044;44.738;20.394;2022-07-23T15:21:26;12.15;;;5.50;;
57409;SDS011;46044;44.738;20.394;2022-07-23T15:23:54;9.57;;;4.85;;